createdAt,value
2022-12-12T00:01:13.004Z,26.86
2022-12-12T00:04:00.598Z,27.74
2022-12-12T00:06:48.173Z,27.30
2022-12-12T00:09:35.753Z,27.11
2022-12-12T00:12:23.342Z,27.47
2022-12-12T00:15:11.262Z,28.18
2022-12-12T00:17:59.127Z,29.47
2022-12-12T00:20:46.731Z,29.91
2022-12-12T00:23:36.360Z,30.66
2022-12-12T00:26:25.385Z,31.16
2022-12-12T00:29:13.010Z,30.68
2022-12-12T00:32:00.606Z,31.10
2022-12-12T00:34:48.173Z,31.01
2022-12-12T00:37:35.746Z,30.95
2022-12-12T00:40:23.349Z,30.95
2022-12-12T00:43:10.903Z,31.43
2022-12-12T00:45:58.580Z,30.63
2022-12-12T00:48:46.200Z,30.83
2022-12-12T00:51:33.884Z,30.29
2022-12-12T00:54:23.429Z,29.02
2022-12-12T00:57:11.074Z,28.02
2022-12-12T00:59:58.669Z,29.29
2022-12-12T01:02:46.316Z,28.51
2022-12-12T01:05:33.914Z,27.80
2022-12-12T01:08:21.534Z,28.76
2022-12-12T01:11:09.245Z,28.39
2022-12-12T01:13:56.811Z,27.44
2022-12-12T01:16:44.400Z,27.73
2022-12-12T01:19:31.974Z,28.81
2022-12-12T01:22:19.573Z,29.65
2022-12-12T01:25:07.168Z,27.50
2022-12-12T01:27:54.766Z,28.38
2022-12-12T01:30:42.353Z,27.47
2022-12-12T01:33:29.953Z,26.62
2022-12-12T01:36:17.553Z,25.40
2022-12-12T01:39:05.130Z,25.08
2022-12-12T01:41:52.734Z,25.40
2022-12-12T01:44:40.337Z,24.67
2022-12-12T01:47:27.950Z,24.67
2022-12-12T01:50:15.553Z,24.37
2022-12-12T01:53:03.142Z,24.00
2022-12-12T01:55:50.713Z,25.03
2022-12-12T01:58:38.303Z,25.66
2022-12-12T02:01:25.883Z,26.12
2022-12-12T02:04:13.493Z,26.49
2022-12-12T02:07:01.067Z,27.59
2022-12-12T02:09:48.650Z,28.50
2022-12-12T02:12:36.259Z,26.11
2022-12-12T02:15:23.843Z,26.52
2022-12-12T02:18:13.023Z,26.58
2022-12-12T02:21:00.657Z,26.00
2022-12-12T02:23:50.236Z,25.11
2022-12-12T02:26:37.838Z,26.00
2022-12-12T02:29:25.430Z,25.68
2022-12-12T02:32:13.000Z,26.06
2022-12-12T02:35:00.574Z,26.03
2022-12-12T02:37:48.150Z,26.35
2022-12-12T02:40:35.757Z,26.40
2022-12-12T02:43:23.345Z,26.77
2022-12-12T02:46:13.035Z,27.49
2022-12-12T02:49:00.634Z,27.27
2022-12-12T02:51:48.251Z,27.17
2022-12-12T02:54:35.808Z,27.77
2022-12-12T02:57:23.401Z,28.32
2022-12-12T03:00:10.961Z,28.50
2022-12-12T03:02:58.558Z,27.76
2022-12-12T03:05:46.123Z,27.24
2022-12-12T03:08:33.706Z,28.11
2022-12-12T03:11:21.259Z,27.65
2022-12-12T03:14:09.006Z,27.16
2022-12-12T03:16:56.586Z,28.29
2022-12-12T03:19:44.301Z,26.98
2022-12-12T03:22:31.857Z,27.41
2022-12-12T03:25:19.534Z,27.35
2022-12-12T03:28:07.159Z,27.90
2022-12-12T03:30:54.749Z,28.53
2022-12-12T03:33:42.307Z,28.45
2022-12-12T03:36:29.898Z,27.82
2022-12-12T03:39:17.510Z,27.50
2022-12-12T03:42:05.062Z,28.21
2022-12-12T03:44:52.647Z,28.19
2022-12-12T03:47:40.275Z,27.43
2022-12-12T03:50:27.866Z,27.82
2022-12-12T03:53:15.441Z,28.17
2022-12-12T03:56:03.047Z,28.31
2022-12-12T03:58:50.637Z,28.18
2022-12-12T04:01:38.237Z,28.64
2022-12-12T04:04:25.833Z,28.70
2022-12-12T04:07:13.426Z,29.28
2022-12-12T04:10:01.005Z,28.72
2022-12-12T04:13:08.582Z,28.50
2022-12-12T04:16:04.926Z,28.54
2022-12-12T04:19:12.468Z,29.01
2022-12-12T04:22:27.055Z,29.13
2022-12-12T04:25:15.254Z,29.81
2022-12-12T04:28:03.035Z,28.80
2022-12-12T04:30:50.635Z,29.58
2022-12-12T04:33:38.216Z,28.33
2022-12-12T04:36:25.811Z,28.35
2022-12-12T04:39:13.385Z,28.05
2022-12-12T04:42:00.964Z,28.53
2022-12-12T04:44:48.605Z,25.67
2022-12-12T04:47:36.214Z,26.63
2022-12-12T04:50:23.815Z,26.56
2022-12-12T04:53:16.621Z,27.96
2022-12-12T04:56:08.075Z,27.28
2022-12-12T04:58:55.662Z,26.87
2022-12-12T05:01:46.854Z,26.00
2022-12-12T05:04:37.270Z,25.15
2022-12-12T05:07:24.848Z,24.79
2022-12-12T05:10:12.437Z,24.96
2022-12-12T05:13:00.023Z,25.44
2022-12-12T05:15:47.620Z,25.52
2022-12-12T05:18:35.226Z,25.75
2022-12-12T05:21:22.814Z,24.34
2022-12-12T05:24:10.396Z,23.83
2022-12-12T05:26:58.013Z,24.56
2022-12-12T05:29:45.715Z,25.25
2022-12-12T05:32:33.302Z,24.52
2022-12-12T05:35:20.906Z,24.21
2022-12-12T05:38:10.530Z,23.71
2022-12-12T05:40:58.132Z,23.72
2022-12-12T05:43:45.709Z,24.86
2022-12-12T05:46:33.322Z,24.78
2022-12-12T05:49:20.974Z,23.69
2022-12-12T05:52:08.566Z,23.45
2022-12-12T05:54:56.147Z,22.59
2022-12-12T05:57:43.712Z,23.22
2022-12-12T06:00:31.317Z,24.40
2022-12-12T06:03:18.905Z,24.54
2022-12-12T06:06:06.609Z,24.09
2022-12-12T06:08:54.167Z,23.89
2022-12-12T06:11:41.738Z,24.23
2022-12-12T06:14:29.319Z,25.09
2022-12-12T06:17:16.906Z,24.38
2022-12-12T06:20:04.466Z,24.18
2022-12-12T06:22:53.771Z,23.39
2022-12-12T06:25:41.685Z,23.77
2022-12-12T06:28:29.294Z,24.82
2022-12-12T06:31:16.907Z,25.41
2022-12-12T06:34:04.578Z,25.55
2022-12-12T06:36:52.143Z,26.16
2022-12-12T06:39:39.850Z,25.30
2022-12-12T06:42:27.469Z,26.17
2022-12-12T06:45:15.580Z,26.56
2022-12-12T06:48:03.379Z,27.06
2022-12-12T06:50:50.980Z,25.96
2022-12-12T06:53:38.545Z,26.37
2022-12-12T06:56:26.145Z,26.05
2022-12-12T06:59:13.730Z,26.17
2022-12-12T07:02:01.458Z,24.30
2022-12-12T07:04:49.104Z,24.22
2022-12-12T07:07:36.846Z,23.74
2022-12-12T07:10:24.429Z,23.86
2022-12-12T07:13:12.061Z,22.77
2022-12-12T07:15:59.676Z,22.71
2022-12-12T07:18:47.370Z,22.70
2022-12-12T07:21:34.966Z,23.80
2022-12-12T07:24:22.552Z,22.60
2022-12-12T07:27:10.157Z,22.24
2022-12-12T07:29:57.718Z,21.70
2022-12-12T07:32:45.317Z,21.32
2022-12-12T07:35:32.882Z,21.27
2022-12-12T07:38:20.563Z,20.23
2022-12-12T07:41:10.125Z,20.15
2022-12-12T07:43:57.737Z,19.43
2022-12-12T07:46:45.361Z,21.01
2022-12-12T07:49:32.984Z,21.90
2022-12-12T07:52:20.574Z,20.33
2022-12-12T07:55:08.185Z,20.42
2022-12-12T07:57:55.834Z,20.20
2022-12-12T08:00:43.427Z,19.72
2022-12-12T08:03:31.016Z,19.94
2022-12-12T08:06:18.621Z,19.47
2022-12-12T08:09:06.234Z,18.95
2022-12-12T08:11:53.803Z,19.21
2022-12-12T08:14:43.441Z,19.45
2022-12-12T08:17:31.015Z,21.30
2022-12-12T08:20:18.648Z,21.29
2022-12-12T08:23:06.231Z,22.46
2022-12-12T08:25:53.817Z,22.37
2022-12-12T08:28:41.428Z,21.10
2022-12-12T08:31:29.169Z,21.56
2022-12-12T08:34:16.849Z,21.65
2022-12-12T08:37:04.471Z,20.45
2022-12-12T08:39:55.613Z,20.76
2022-12-12T08:42:43.493Z,21.69
2022-12-12T08:45:31.090Z,20.78
2022-12-12T08:48:18.725Z,20.84
2022-12-12T08:51:06.286Z,20.84
2022-12-12T08:53:53.870Z,21.85
2022-12-12T08:56:41.454Z,21.22
2022-12-12T08:59:29.057Z,20.22
2022-12-12T09:02:16.758Z,22.84
2022-12-12T09:05:04.388Z,23.91
2022-12-12T09:07:52.008Z,28.15
2022-12-12T09:10:39.964Z,28.87
2022-12-12T09:13:27.558Z,30.28
2022-12-12T09:16:15.189Z,27.94
2022-12-12T09:19:02.787Z,28.80
2022-12-12T09:21:50.380Z,35.16
2022-12-12T09:24:37.949Z,27.19
2022-12-12T09:27:25.554Z,26.66
2022-12-12T09:30:13.166Z,24.39
2022-12-12T09:33:00.754Z,23.57
2022-12-12T09:35:48.318Z,23.21
2022-12-12T09:38:35.930Z,23.14
2022-12-12T09:41:23.511Z,22.80
2022-12-12T09:44:11.110Z,22.18
2022-12-12T09:46:58.694Z,22.66
2022-12-12T09:49:46.314Z,22.45
2022-12-12T09:52:33.928Z,21.96
2022-12-12T09:55:21.534Z,22.49
2022-12-12T09:58:09.109Z,22.69
2022-12-12T10:00:56.763Z,22.67
2022-12-12T10:03:44.383Z,24.67
2022-12-12T10:06:39.145Z,24.24
2022-12-12T10:09:26.753Z,25.81
2022-12-12T10:12:14.317Z,25.09
2022-12-12T10:15:01.895Z,23.87
2022-12-12T10:17:49.561Z,24.53
2022-12-12T10:20:37.198Z,24.74
2022-12-12T10:23:24.791Z,24.18
2022-12-12T10:26:12.398Z,24.24
2022-12-12T10:29:02.007Z,24.16
2022-12-12T10:31:49.665Z,24.80
2022-12-12T10:34:37.283Z,25.40
2022-12-12T10:37:24.983Z,25.52
2022-12-12T10:40:14.537Z,25.83
2022-12-12T10:43:02.177Z,26.48
2022-12-12T10:45:49.817Z,27.10
2022-12-12T10:48:37.411Z,26.22
2022-12-12T10:51:24.990Z,26.34
2022-12-12T10:54:12.603Z,27.33
2022-12-12T10:57:02.201Z,27.34
2022-12-12T10:59:49.806Z,26.45
2022-12-12T11:02:37.482Z,26.74
2022-12-12T11:05:25.191Z,26.79
2022-12-12T11:08:12.772Z,27.76
2022-12-12T11:11:00.447Z,26.17
2022-12-12T11:13:48.031Z,26.91
2022-12-12T11:16:35.663Z,28.78
2022-12-12T11:19:23.286Z,28.56
2022-12-12T11:22:10.868Z,28.98
2022-12-12T11:24:58.438Z,31.23
2022-12-12T11:27:46.033Z,30.41
2022-12-12T11:30:33.622Z,30.11
2022-12-12T11:33:21.184Z,30.79
2022-12-12T11:36:08.768Z,34.02
2022-12-12T11:38:56.339Z,30.55
2022-12-12T11:41:43.911Z,31.16
2022-12-12T11:44:33.523Z,29.74
2022-12-12T11:47:21.100Z,29.83
2022-12-12T11:50:10.896Z,29.79
2022-12-12T11:52:58.826Z,29.19
2022-12-12T11:55:46.435Z,27.61
2022-12-12T11:58:34.029Z,28.81
2022-12-12T12:01:21.598Z,31.64
2022-12-12T12:04:09.244Z,32.11
2022-12-12T12:06:56.843Z,32.50
2022-12-12T12:09:44.448Z,31.41
2022-12-12T12:12:32.028Z,31.29
2022-12-12T12:15:19.623Z,31.15
2022-12-12T12:18:07.186Z,29.22
2022-12-12T12:20:54.759Z,30.25
2022-12-12T12:23:46.238Z,29.02
2022-12-12T12:26:36.482Z,29.58
2022-12-12T12:29:24.085Z,31.46
2022-12-12T12:32:11.665Z,31.24
2022-12-12T12:34:59.254Z,32.49
2022-12-12T12:37:46.846Z,32.53
2022-12-12T12:40:34.458Z,31.33
2022-12-12T12:43:22.026Z,34.14
2022-12-12T12:46:09.648Z,30.99
2022-12-12T12:48:57.263Z,28.69
2022-12-12T12:51:50.103Z,27.09
2022-12-12T12:54:38.109Z,25.65
2022-12-12T12:57:25.691Z,26.37
2022-12-12T13:00:13.567Z,26.70
2022-12-12T13:03:01.440Z,26.61
2022-12-12T13:05:49.058Z,28.17
2022-12-12T13:08:36.640Z,29.30
2022-12-12T13:11:24.222Z,29.47
2022-12-12T13:14:11.831Z,28.90
2022-12-12T13:16:59.410Z,28.64
2022-12-12T13:19:47.025Z,28.26
2022-12-12T13:22:34.648Z,27.26
2022-12-12T13:25:22.259Z,26.44
2022-12-12T13:28:09.940Z,26.54
2022-12-12T13:30:57.546Z,27.90
2022-12-12T13:33:45.182Z,26.27
2022-12-12T13:36:32.787Z,30.00
2022-12-12T13:39:20.400Z,30.30
2022-12-12T13:42:11.488Z,30.62
2022-12-12T13:44:59.094Z,28.92
2022-12-12T13:47:46.689Z,30.59
2022-12-12T13:50:34.320Z,29.23
2022-12-12T13:53:21.956Z,30.14
2022-12-12T13:56:09.558Z,29.82
2022-12-12T13:58:57.153Z,29.50
2022-12-12T14:01:44.790Z,30.45
2022-12-12T14:04:32.416Z,31.37
2022-12-12T14:07:20.005Z,31.58
2022-12-12T14:10:07.608Z,30.07
2022-12-12T14:12:55.249Z,30.02
2022-12-12T14:15:42.868Z,28.08
2022-12-12T14:18:30.675Z,27.45
2022-12-12T14:21:18.287Z,26.96
2022-12-12T14:24:05.891Z,28.43
2022-12-12T14:26:53.481Z,28.67
2022-12-12T14:29:41.180Z,29.30
2022-12-12T14:32:28.778Z,28.90
2022-12-12T14:35:16.414Z,29.15
2022-12-12T14:38:04.015Z,27.89
2022-12-12T14:40:51.607Z,27.64
2022-12-12T14:43:39.198Z,26.44
2022-12-12T14:46:26.887Z,26.82
2022-12-12T14:49:14.511Z,27.24
2022-12-12T14:52:02.139Z,26.22
2022-12-12T14:54:49.715Z,25.89
2022-12-12T14:57:37.343Z,25.84
2022-12-12T15:00:24.951Z,24.90
2022-12-12T15:03:12.656Z,25.76
2022-12-12T15:06:00.512Z,26.06
2022-12-12T15:08:48.120Z,27.58
2022-12-12T15:11:35.736Z,27.37
2022-12-12T15:14:23.329Z,28.55
2022-12-12T15:17:10.946Z,28.31
2022-12-12T15:19:58.562Z,28.23
2022-12-12T15:22:46.179Z,28.91
2022-12-12T15:25:33.788Z,28.90
2022-12-12T15:28:21.392Z,28.57
2022-12-12T15:31:09.038Z,28.18
2022-12-12T15:33:56.677Z,27.42
2022-12-12T15:36:44.282Z,26.49
2022-12-12T15:39:31.994Z,26.98
2022-12-12T15:42:19.608Z,27.39
2022-12-12T15:45:07.226Z,27.60
2022-12-12T15:47:54.816Z,27.63
2022-12-12T15:50:42.439Z,27.00
2022-12-12T15:53:30.017Z,26.88
2022-12-12T15:56:17.639Z,26.16
2022-12-12T15:59:05.246Z,26.10
2022-12-12T16:01:52.892Z,27.52
2022-12-12T16:04:40.487Z,27.23
2022-12-12T16:07:28.090Z,33.15
2022-12-12T16:10:16.082Z,28.34
2022-12-12T16:13:03.874Z,26.94
2022-12-12T16:15:51.555Z,27.39
2022-12-12T16:18:39.208Z,27.15
2022-12-12T16:21:26.826Z,26.79
2022-12-12T16:24:14.409Z,26.91
2022-12-12T16:27:02.044Z,26.35
2022-12-12T16:29:49.626Z,28.16
2022-12-12T16:32:37.206Z,28.66
2022-12-12T16:35:24.788Z,29.00
2022-12-12T16:38:12.412Z,28.26
2022-12-12T16:41:00.010Z,27.36
2022-12-12T16:43:47.620Z,27.25
2022-12-12T16:46:35.218Z,28.01
2022-12-12T16:49:22.920Z,28.14
2022-12-12T16:52:10.510Z,27.37
2022-12-12T16:54:58.111Z,27.12
2022-12-12T16:57:45.680Z,26.49
2022-12-12T17:00:33.324Z,28.25
2022-12-12T17:03:20.907Z,27.81
2022-12-12T17:06:08.580Z,27.23
2022-12-12T17:08:56.161Z,27.24
2022-12-12T17:11:43.768Z,27.55
2022-12-12T17:14:31.339Z,27.51
2022-12-12T17:17:18.934Z,28.30
2022-12-12T17:20:06.521Z,27.21
2022-12-12T17:22:54.123Z,28.98
2022-12-12T17:25:41.686Z,29.01
2022-12-12T17:28:29.344Z,29.63
2022-12-12T17:31:16.940Z,28.43
2022-12-12T17:34:04.730Z,28.55
2022-12-12T17:36:52.346Z,29.35
2022-12-12T17:39:39.949Z,28.81
2022-12-12T17:42:27.534Z,29.10
2022-12-12T17:45:15.151Z,28.65
2022-12-12T17:48:02.731Z,28.03
2022-12-12T17:50:50.339Z,29.67
2022-12-12T17:53:37.928Z,27.95
2022-12-12T17:56:25.533Z,28.09
2022-12-12T17:59:13.130Z,28.86
2022-12-12T18:02:00.720Z,28.60
2022-12-12T18:04:48.388Z,28.49
2022-12-12T18:07:35.977Z,29.19
2022-12-12T18:10:23.563Z,29.73
2022-12-12T18:13:11.126Z,27.94
2022-12-12T18:15:58.724Z,27.35
2022-12-12T18:18:46.294Z,28.69
2022-12-12T18:24:41.412Z,29.34
2022-12-12T18:27:28.995Z,28.92
2022-12-12T18:30:16.995Z,29.69
2022-12-12T18:33:04.755Z,29.71
2022-12-12T18:35:52.310Z,30.29
2022-12-12T18:38:42.884Z,29.55
2022-12-12T18:41:34.865Z,29.69
2022-12-12T18:44:22.449Z,29.16
2022-12-12T18:47:10.046Z,30.42
2022-12-12T18:49:57.661Z,32.38
2022-12-12T18:52:45.254Z,29.70
2022-12-12T18:55:32.853Z,30.31
2022-12-12T18:58:20.413Z,30.52
2022-12-12T19:01:08.062Z,29.65
2022-12-12T19:03:55.663Z,30.86
2022-12-12T19:06:43.305Z,30.70
2022-12-12T19:09:30.934Z,30.57
2022-12-12T19:12:18.559Z,30.06
2022-12-12T19:15:21.468Z,30.00
2022-12-12T19:18:09.084Z,30.85
2022-12-12T19:20:56.683Z,30.09
2022-12-12T19:23:44.262Z,30.28
2022-12-12T19:26:31.892Z,29.36
2022-12-12T19:29:19.463Z,29.46
2022-12-12T19:32:07.202Z,28.96
2022-12-12T19:34:56.764Z,29.71
2022-12-12T19:37:44.370Z,28.72
2022-12-12T19:40:31.955Z,29.05
2022-12-12T19:43:19.571Z,28.94
2022-12-12T19:46:07.260Z,30.27
2022-12-12T19:48:54.968Z,30.06
2022-12-12T19:51:42.555Z,30.46
2022-12-12T19:54:30.143Z,30.36
2022-12-12T19:57:17.729Z,30.26
2022-12-12T20:00:05.330Z,30.05
2022-12-12T20:02:52.988Z,30.31
2022-12-12T20:05:40.637Z,30.75
2022-12-12T20:08:28.275Z,30.24
2022-12-12T20:11:15.934Z,31.01
2022-12-12T20:14:03.531Z,30.31
2022-12-12T20:16:51.101Z,30.73
2022-12-12T20:19:38.688Z,31.09
2022-12-12T20:22:26.268Z,30.40
2022-12-12T20:25:13.908Z,29.73
2022-12-12T20:28:01.471Z,29.69
2022-12-12T20:30:53.234Z,28.72
2022-12-12T20:33:41.187Z,30.30
2022-12-12T20:36:28.787Z,29.24
2022-12-12T20:39:16.371Z,28.99
2022-12-12T20:42:04.107Z,28.93
2022-12-12T20:44:51.715Z,28.94
2022-12-12T20:47:39.311Z,28.84
2022-12-12T20:50:26.890Z,29.09
2022-12-12T20:53:14.482Z,28.83
2022-12-12T20:56:05.197Z,29.88
2022-12-12T20:58:55.421Z,29.11
2022-12-12T21:01:43.062Z,28.66
2022-12-12T21:04:30.694Z,28.84
2022-12-12T21:07:18.277Z,29.62
2022-12-12T21:10:05.878Z,29.60
2022-12-12T21:12:53.488Z,29.93
2022-12-12T21:15:41.148Z,28.25
2022-12-12T21:18:28.743Z,29.07
2022-12-12T21:21:16.350Z,30.21
2022-12-12T21:24:03.938Z,29.40
2022-12-12T21:26:51.527Z,29.85
2022-12-12T21:29:39.116Z,29.61
2022-12-12T21:32:26.710Z,29.76
2022-12-12T21:35:14.421Z,29.55
2022-12-12T21:38:02.190Z,30.21
2022-12-12T21:40:49.748Z,31.32
2022-12-12T21:43:37.365Z,30.40
2022-12-12T21:46:24.976Z,30.25
2022-12-12T21:49:12.610Z,29.77
2022-12-12T21:52:00.241Z,29.42
2022-12-12T21:54:47.949Z,29.71
2022-12-12T21:57:35.559Z,28.98
2022-12-12T22:00:23.217Z,29.56
2022-12-12T22:03:10.868Z,29.30
2022-12-12T22:05:58.518Z,31.22
2022-12-12T22:08:46.076Z,30.30
2022-12-12T22:11:40.130Z,29.87
2022-12-12T22:14:29.294Z,30.97
2022-12-12T22:17:16.915Z,31.29
2022-12-12T22:20:04.471Z,31.03
2022-12-12T22:22:52.137Z,32.05
2022-12-12T22:25:39.766Z,32.15
2022-12-12T22:28:27.355Z,30.97
2022-12-12T22:31:14.975Z,31.36
2022-12-12T22:34:02.580Z,31.16
2022-12-12T22:36:50.175Z,33.45
2022-12-12T22:39:37.793Z,32.73
2022-12-12T22:42:25.404Z,31.50
2022-12-12T22:45:13.422Z,32.20
2022-12-12T22:48:01.226Z,32.07
2022-12-12T22:50:48.826Z,32.57
2022-12-12T22:53:42.425Z,32.52
2022-12-12T22:56:31.666Z,32.07
2022-12-12T22:59:19.254Z,32.65
2022-12-12T23:02:06.823Z,32.89
2022-12-12T23:04:54.511Z,32.71
2022-12-12T23:07:42.139Z,31.77
2022-12-12T23:10:29.754Z,32.55
2022-12-12T23:13:17.347Z,31.31
2022-12-12T23:16:04.965Z,32.52
2022-12-12T23:18:52.648Z,31.17
2022-12-12T23:21:42.243Z,31.65
2022-12-12T23:24:29.863Z,31.84
2022-12-12T23:27:17.472Z,31.83
2022-12-12T23:30:05.075Z,31.96
2022-12-12T23:32:52.681Z,33.15
2022-12-12T23:35:40.266Z,31.37
2022-12-12T23:38:27.865Z,32.15
2022-12-12T23:41:15.479Z,32.88
2022-12-12T23:44:03.138Z,32.94
2022-12-12T23:46:50.714Z,34.35
2022-12-12T23:49:40.314Z,33.64
2022-12-12T23:52:27.894Z,34.38
2022-12-12T23:55:15.655Z,33.84
2022-12-12T23:58:04.594Z,34.52
